Yreka, California
Current Conditions -  °F | °C
As of 3:53 PM on Saturday 25 Oct 2014 (Local Time) from KSIY Reporting Station
Light Rain Light Rain  
Wind Chill: 53°   Ceiling: 5000
Heat Index: 53°   Visibility: 10mi
Dew Point: 46°   Wind: 17mph
Humidity: 77%   Direction: 210°SSW
Pressure: 29.87"   Gusts: NA
Location:  41.73°N, 122.63°W
Report Text: KSIY 252253Z AUTO 21015KT 10SM -RA BKN050 BKN080 OVC100 12/08 A2987 RMK AO2 PK WND 19042/2213 LTG DSNT NE AND SE RAB10 SLP115 P0005 T01170078 $
Loading
Personal Weather Stations






























Interactive Weather Map
Tropical Storm Tracking
New forecast layout! Learn more

10-Day Weather Forecast

Advertisements
Track Severe Weather on mobile